sensor_id;sensor_type;location;lat;lon;timestamp;pressure;altitude;pressure_sealevel;temperature;humidity
38558;BME280;24333;42.626;23.308;2023-02-24T00:39:54;92108.44;;;4.10;100.00
38558;BME280;24333;42.626;23.308;2023-02-24T00:42:44;92131.97;;;4.22;100.00
38558;BME280;24333;42.626;23.308;2023-02-24T00:45:52;92138.94;;;4.23;100.00
38558;BME280;24333;42.626;23.308;2023-02-24T00:48:18;92125.66;;;4.18;100.00
38558;BME280;24333;42.626;23.308;2023-02-24T00:50:43;92127.09;;;4.15;100.00
38558;BME280;24333;42.626;23.308;2023-02-24T00:57:27;92138.59;;;4.25;100.00
38558;BME280;24333;42.626;23.308;2023-02-24T01:00:45;92113.06;;;4.10;100.00
38558;BME280;24333;42.626;23.308;2023-02-24T01:03:11;92119.91;;;4.19;100.00
38558;BME280;24333;42.626;23.308;2023-02-24T01:05:46;92131.97;;;4.10;100.00
38558;BME280;24333;42.626;23.308;2023-02-24T01:08:40;92130.84;;;4.23;100.00
38558;BME280;24333;42.626;23.308;2023-02-24T01:11:12;92122.16;;;4.17;100.00
38558;BME280;24333;42.626;23.308;2023-02-24T01:13:56;92120.72;;;4.20;100.00
38558;BME280;24333;42.626;23.308;2023-02-24T01:16:22;92109.56;;;4.09;100.00
38558;BME280;24333;42.626;23.308;2023-02-24T01:18:47;92124.75;;;4.26;100.00
38558;BME280;24333;42.626;23.308;2023-02-24T01:21:20;92127.91;;;4.28;100.00
38558;BME280;24333;42.626;23.308;2023-02-24T01:24:18;92126.09;;;4.32;100.00
38558;BME280;24333;42.626;23.308;2023-02-24T01:30:05;92111.94;;;4.36;100.00
38558;BME280;24333;42.626;23.308;2023-02-24T01:32:31;92105.41;;;4.37;100.00
38558;BME280;24333;42.626;23.308;2023-02-24T01:35:26;92109.00;;;4.41;100.00
38558;BME280;24333;42.626;23.308;2023-02-24T01:38:24;92091.59;;;4.26;100.00
38558;BME280;24333;42.626;23.308;2023-02-24T01:41:10;92117.78;;;4.38;100.00
38558;BME280;24333;42.626;23.308;2023-02-24T01:46:47;92106.31;;;4.28;100.00
38558;BME280;24333;42.626;23.308;2023-02-24T01:49:21;92104.41;;;4.41;100.00
38558;BME280;24333;42.626;23.308;2023-02-24T01:51:54;92098.88;;;4.38;100.00
38558;BME280;24333;42.626;23.308;2023-02-24T02:15:17;92103.13;;;4.63;100.00
38558;BME280;24333;42.626;23.308;2023-02-24T02:18:26;92108.72;;;4.71;100.00
38558;BME280;24333;42.626;23.308;2023-02-24T02:23:52;92103.09;;;4.76;100.00
38558;BME280;24333;42.626;23.308;2023-02-24T02:35:14;92106.56;;;4.89;100.00
38558;BME280;24333;42.626;23.308;2023-02-24T02:43:17;92110.03;;;5.02;100.00
38558;BME280;24333;42.626;23.308;2023-02-24T02:46:15;92109.53;;;5.12;100.00
38558;BME280;24333;42.626;23.308;2023-02-24T02:48:56;92109.88;;;5.11;100.00
38558;BME280;24333;42.626;23.308;2023-02-24T02:51:28;92093.91;;;5.05;100.00
38558;BME280;24333;42.626;23.308;2023-02-24T02:56:58;92090.97;;;5.11;100.00
38558;BME280;24333;42.626;23.308;2023-02-24T02:59:27;92096.38;;;5.11;100.00
38558;BME280;24333;42.626;23.308;2023-02-24T03:01:55;92087.91;;;5.12;100.00
38558;BME280;24333;42.626;23.308;2023-02-24T03:04:39;92075.25;;;5.00;100.00
38558;BME280;24333;42.626;23.308;2023-02-24T03:07:07;92076.66;;;5.10;100.00
38558;BME280;24333;42.626;23.308;2023-02-24T03:09:36;92083.53;;;5.07;100.00
38558;BME280;24333;42.626;23.308;2023-02-24T03:12:12;92085.44;;;5.07;100.00
38558;BME280;24333;42.626;23.308;2023-02-24T03:14:43;92093.91;;;5.05;100.00
38558;BME280;24333;42.626;23.308;2023-02-24T03:17:19;92094.06;;;4.97;100.00
38558;BME280;24333;42.626;23.308;2023-02-24T03:19:48;92094.41;;;4.95;100.00
38558;BME280;24333;42.626;23.308;2023-02-24T03:22:35;92090.84;;;4.78;100.00
38558;BME280;24333;42.626;23.308;2023-02-24T03:25:07;92087.47;;;4.69;100.00
38558;BME280;24333;42.626;23.308;2023-02-24T03:28:12;92093.22;;;4.80;100.00
38558;BME280;24333;42.626;23.308;2023-02-24T03:30:45;92085.31;;;4.75;100.00
38558;BME280;24333;42.626;23.308;2023-02-24T03:33:25;92097.13;;;4.83;100.00
38558;BME280;24333;42.626;23.308;2023-02-24T03:35:56;92083.84;;;4.77;100.00
38558;BME280;24333;42.626;23.308;2023-02-24T03:38:27;92091.72;;;4.83;100.00
38558;BME280;24333;42.626;23.308;2023-02-24T03:40:58;92096.00;;;4.84;100.00
38558;BME280;24333;42.626;23.308;2023-02-24T03:43:31;92087.88;;;4.84;100.00
38558;BME280;24333;42.626;23.308;2023-02-24T03:45:59;92083.72;;;4.86;100.00
38558;BME280;24333;42.626;23.308;2023-02-24T03:48:29;92097.44;;;4.94;100.00
38558;BME280;24333;42.626;23.308;2023-02-24T03:51:27;92089.91;;;4.87;100.00
38558;BME280;24333;42.626;23.308;2023-02-24T04:29:35;92085.06;;;4.92;100.00
38558;BME280;24333;42.626;23.308;2023-02-24T04:32:12;92074.13;;;4.89;100.00
38558;BME280;24333;42.626;23.308;2023-02-24T04:34:39;92080.22;;;4.98;100.00
38558;BME280;24333;42.626;23.308;2023-02-24T06:42:04;92115.63;;;4.56;100.00
38558;BME280;24333;42.626;23.308;2023-02-24T06:44:30;92107.44;;;4.52;100.00
38558;BME280;24333;42.626;23.308;2023-02-24T06:46:56;92116.59;;;4.76;100.00
38558;BME280;24333;42.626;23.308;2023-02-24T06:49:23;92096.56;;;4.89;100.00
38558;BME280;24333;42.626;23.308;2023-02-24T06:51:48;92099.22;;;5.02;100.00
38558;BME280;24333;42.626;23.308;2023-02-24T06:54:14;92101.97;;;5.18;100.00
38558;BME280;24333;42.626;23.308;2023-02-24T06:56:40;92088.66;;;5.25;100.00
38558;BME280;24333;42.626;23.308;2023-02-24T06:59:06;92098.88;;;5.32;100.00
38558;BME280;24333;42.626;23.308;2023-02-24T07:01:36;92091.72;;;5.24;100.00
38558;BME280;24333;42.626;23.308;2023-02-24T07:04:12;92083.28;;;5.41;100.00
38558;BME280;24333;42.626;23.308;2023-02-24T07:06:40;92082.31;;;5.33;100.00
38558;BME280;24333;42.626;23.308;2023-02-24T07:09:11;92093.63;;;5.52;100.00
38558;BME280;24333;42.626;23.308;2023-02-24T07:11:39;92082.97;;;5.59;100.00
38558;BME280;24333;42.626;23.308;2023-02-24T07:14:06;92078.63;;;5.70;100.00
38558;BME280;24333;42.626;23.308;2023-02-24T07:16:33;92080.72;;;5.61;100.00
38558;BME280;24333;42.626;23.308;2023-02-24T07:19:06;92085.25;;;5.57;100.00
38558;BME280;24333;42.626;23.308;2023-02-24T07:21:36;92091.66;;;5.36;100.00
38558;BME280;24333;42.626;23.308;2023-02-24T07:24:09;92080.09;;;5.52;100.00
38558;BME280;24333;42.626;23.308;2023-02-24T07:26:37;92089.53;;;5.58;100.00
38558;BME280;24333;42.626;23.308;2023-02-24T07:29:06;92093.41;;;5.73;100.00
38558;BME280;24333;42.626;23.308;2023-02-24T07:31:31;92085.09;;;5.82;100.00
38558;BME280;24333;42.626;23.308;2023-02-24T07:33:58;92094.22;;;6.05;100.00
38558;BME280;24333;42.626;23.308;2023-02-24T07:36:26;92094.38;;;6.13;100.00
38558;BME280;24333;42.626;23.308;2023-02-24T07:38:55;92081.28;;;6.31;100.00
38558;BME280;24333;42.626;23.308;2023-02-24T07:41:26;92081.53;;;6.42;100.00
38558;BME280;24333;42.626;23.308;2023-02-24T07:43:53;92076.50;;;6.60;100.00
38558;BME280;24333;42.626;23.308;2023-02-24T07:46:21;92086.66;;;6.47;100.00
38558;BME280;24333;42.626;23.308;2023-02-24T07:48:51;92079.47;;;6.03;100.00
38558;BME280;24333;42.626;23.308;2023-02-24T07:51:19;92084.22;;;5.93;100.00
38558;BME280;24333;42.626;23.308;2023-02-24T07:53:53;92075.41;;;5.81;100.00
38558;BME280;24333;42.626;23.308;2023-02-24T07:56:21;92081.06;;;5.75;100.00
38558;BME280;24333;42.626;23.308;2023-02-24T17:07:41;91720.56;;;7.76;100.00
38558;BME280;24333;42.626;23.308;2023-02-24T17:10:08;91736.06;;;7.75;100.00
38558;BME280;24333;42.626;23.308;2023-02-24T17:12:33;91738.53;;;7.84;100.00
38558;BME280;24333;42.626;23.308;2023-02-24T17:14:58;91721.81;;;7.82;100.00
38558;BME280;24333;42.626;23.308;2023-02-24T17:17:24;91721.09;;;7.85;100.00
38558;BME280;24333;42.626;23.308;2023-02-24T17:23:33;91725.69;;;7.81;100.00
38558;BME280;24333;42.626;23.308;2023-02-24T17:25:59;91729.56;;;7.80;100.00
38558;BME280;24333;42.626;23.308;2023-02-24T17:28:25;91708.03;;;7.64;100.00
38558;BME280;24333;42.626;23.308;2023-02-24T17:30:50;91712.19;;;7.58;100.00
38558;BME280;24333;42.626;23.308;2023-02-24T17:52:24;91706.41;;;7.59;100.00
38558;BME280;24333;42.626;23.308;2023-02-24T17:55:34;91699.69;;;7.49;100.00
38558;BME280;24333;42.626;23.308;2023-02-24T17:58:00;91707.50;;;7.55;100.00
38558;BME280;24333;42.626;23.308;2023-02-24T18:00:41;91706.78;;;7.58;100.00
38558;BME280;24333;42.626;23.308;2023-02-24T18:03:48;91696.06;;;7.38;100.00
38558;BME280;24333;42.626;23.308;2023-02-24T18:06:13;91697.22;;;7.37;100.00
38558;BME280;24333;42.626;23.308;2023-02-24T18:08:40;91699.69;;;7.49;100.00
38558;BME280;24333;42.626;23.308;2023-02-24T18:11:14;91703.75;;;7.63;100.00
38558;BME280;24333;42.626;23.308;2023-02-24T18:13:59;91700.88;;;7.82;100.00
38558;BME280;24333;42.626;23.308;2023-02-24T18:16:24;91694.06;;;7.96;100.00
38558;BME280;24333;42.626;23.308;2023-02-24T18:18:52;91711.25;;;8.07;100.00
38558;BME280;24333;42.626;23.308;2023-02-24T18:21:46;91706.63;;;8.12;100.00
38558;BME280;24333;42.626;23.308;2023-02-24T18:24:11;91697.50;;;7.93;100.00
38558;BME280;24333;42.626;23.308;2023-02-24T18:26:42;91689.41;;;7.96;100.00
38558;BME280;24333;42.626;23.308;2023-02-24T18:29:11;91701.47;;;7.99;100.00
38558;BME280;24333;42.626;23.308;2023-02-24T18:31:37;91719.94;;;8.24;100.00
38558;BME280;24333;42.626;23.308;2023-02-24T18:34:08;91707.44;;;8.50;100.00
38558;BME280;24333;42.626;23.308;2023-02-24T18:36:44;91709.25;;;8.83;97.58
38558;BME280;24333;42.626;23.308;2023-02-24T18:39:15;91709.75;;;8.93;94.08
38558;BME280;24333;42.626;23.308;2023-02-24T18:41:54;91717.66;;;9.16;89.99
38558;BME280;24333;42.626;23.308;2023-02-24T18:44:21;91730.88;;;9.14;89.19
38558;BME280;24333;42.626;23.308;2023-02-24T18:47:03;91717.91;;;8.96;100.00
38558;BME280;24333;42.626;23.308;2023-02-24T18:49:59;91720.56;;;8.89;100.00
38558;BME280;24333;42.626;23.308;2023-02-24T18:53:02;91710.19;;;8.57;100.00
38558;BME280;24333;42.626;23.308;2023-02-24T18:55:40;91706.59;;;8.46;100.00
38558;BME280;24333;42.626;23.308;2023-02-24T18:58:29;91694.38;;;8.29;100.00
38558;BME280;24333;42.626;23.308;2023-02-24T19:03:51;91704.63;;;8.84;90.76
38558;BME280;24333;42.626;23.308;2023-02-24T19:06:23;91698.00;;;8.85;88.40
38558;BME280;24333;42.626;23.308;2023-02-24T19:08:59;91709.78;;;9.00;84.43
38558;BME280;24333;42.626;23.308;2023-02-24T19:11:27;91680.19;;;8.88;81.91
38558;BME280;24333;42.626;23.308;2023-02-24T19:13:54;91686.06;;;9.01;82.95
38558;BME280;24333;42.626;23.308;2023-02-24T19:16:21;91706.75;;;9.13;79.48
38558;BME280;24333;42.626;23.308;2023-02-24T19:18:50;91718.91;;;9.30;77.94
38558;BME280;24333;42.626;23.308;2023-02-24T19:21:21;91705.72;;;9.28;80.36
38558;BME280;24333;42.626;23.308;2023-02-24T19:23:47;91718.22;;;9.40;79.03
38558;BME280;24333;42.626;23.308;2023-02-24T19:26:57;91698.72;;;9.27;79.57
38558;BME280;24333;42.626;23.308;2023-02-24T19:29:50;91723.59;;;9.33;79.55
38558;BME280;24333;42.626;23.308;2023-02-24T19:32:23;91726.69;;;9.28;81.00
38558;BME280;24333;42.626;23.308;2023-02-24T19:35:19;91722.03;;;9.28;80.99
38558;BME280;24333;42.626;23.308;2023-02-24T19:38:15;91715.00;;;9.23;81.36
38558;BME280;24333;42.626;23.308;2023-02-24T19:40:41;91718.91;;;9.30;82.37
38558;BME280;24333;42.626;23.308;2023-02-24T19:43:07;91722.00;;;9.24;82.49
38558;BME280;24333;42.626;23.308;2023-02-24T19:45:33;91707.97;;;9.19;83.64
38558;BME280;24333;42.626;23.308;2023-02-24T19:48:04;91702.88;;;9.10;83.09
38558;BME280;24333;42.626;23.308;2023-02-24T19:50:38;91720.44;;;9.20;83.63
38558;BME280;24333;42.626;23.308;2023-02-24T19:53:31;91721.22;;;9.24;83.95
38558;BME280;24333;42.626;23.308;2023-02-24T19:56:03;91707.91;;;9.08;84.77
38558;BME280;24333;42.626;23.308;2023-02-24T19:58:50;91723.13;;;9.16;86.18
38558;BME280;24333;42.626;23.308;2023-02-24T20:38:22;91680.50;;;8.37;98.14
38558;BME280;24333;42.626;23.308;2023-02-24T20:41:17;91693.59;;;8.66;95.67
38558;BME280;24333;42.626;23.308;2023-02-24T20:43:56;91687.66;;;8.53;96.06
38558;BME280;24333;42.626;23.308;2023-02-24T21:05:47;91658.22;;;8.21;100.00
38558;BME280;24333;42.626;23.308;2023-02-24T21:08:19;91655.38;;;8.06;100.00
38558;BME280;24333;42.626;23.308;2023-02-24T21:10:48;91660.34;;;8.01;100.00
38558;BME280;24333;42.626;23.308;2023-02-24T21:13:29;91667.81;;;7.73;100.00
38558;BME280;24333;42.626;23.308;2023-02-24T21:24:10;91660.66;;;7.58;100.00
38558;BME280;24333;42.626;23.308;2023-02-24T21:26:35;91652.63;;;7.69;100.00
38558;BME280;24333;42.626;23.308;2023-02-24T21:29:10;91641.84;;;7.76;100.00
38558;BME280;24333;42.626;23.308;2023-02-24T21:31:51;91659.91;;;7.95;100.00
38558;BME280;24333;42.626;23.308;2023-02-24T21:34:16;91652.59;;;7.99;100.00
38558;BME280;24333;42.626;23.308;2023-02-24T21:36:44;91669.44;;;8.16;100.00
38558;BME280;24333;42.626;23.308;2023-02-24T22:47:01;91625.94;;;7.06;100.00
38558;BME280;24333;42.626;23.308;2023-02-24T22:49:27;91630.06;;;7.27;100.00
38558;BME280;24333;42.626;23.308;2023-02-24T22:51:52;91647.34;;;7.45;100.00
38558;BME280;24333;42.626;23.308;2023-02-24T22:54:18;91622.19;;;7.48;100.00
38558;BME280;24333;42.626;23.308;2023-02-24T22:56:44;91638.09;;;7.84;100.00
38558;BME280;24333;42.626;23.308;2023-02-24T22:59:10;91622.38;;;7.02;100.00
38558;BME280;24333;42.626;23.308;2023-02-24T23:01:51;91636.56;;;6.64;100.00
38558;BME280;24333;42.626;23.308;2023-02-24T23:04:37;91638.88;;;6.16;100.00
38558;BME280;24333;42.626;23.308;2023-02-24T23:07:11;91617.28;;;5.96;100.00
38558;BME280;24333;42.626;23.308;2023-02-24T23:09:37;91634.47;;;5.84;100.00
38558;BME280;24333;42.626;23.308;2023-02-24T23:12:22;91622.75;;;5.57;100.00
38558;BME280;24333;42.626;23.308;2023-02-24T23:14:48;91607.56;;;5.48;100.00
38558;BME280;24333;42.626;23.308;2023-02-24T23:17:13;91624.81;;;6.06;100.00
38558;BME280;24333;42.626;23.308;2023-02-24T23:19:38;91640.09;;;6.42;100.00
38558;BME280;24333;42.626;23.308;2023-02-24T23:22:04;91605.63;;;6.39;100.00
38558;BME280;24333;42.626;23.308;2023-02-24T23:24:35;91622.66;;;6.66;100.00
38558;BME280;24333;42.626;23.308;2023-02-24T23:27:06;91622.59;;;6.89;100.00
38558;BME280;24333;42.626;23.308;2023-02-24T23:29:45;91630.88;;;7.00;100.00
38558;BME280;24333;42.626;23.308;2023-02-24T23:32:19;91618.31;;;6.88;100.00
38558;BME280;24333;42.626;23.308;2023-02-24T23:34:45;91606.66;;;6.84;100.00
38558;BME280;24333;42.626;23.308;2023-02-24T23:37:12;91605.31;;;7.01;100.00
38558;BME280;24333;42.626;23.308;2023-02-24T23:39:38;91616.06;;;7.24;100.00
38558;BME280;24333;42.626;23.308;2023-02-24T23:42:04;91637.13;;;7.04;100.00
38558;BME280;24333;42.626;23.308;2023-02-24T23:48:28;91598.13;;;5.42;100.00
38558;BME280;24333;42.626;23.308;2023-02-24T23:51:05;91592.72;;;5.42;100.00
38558;BME280;24333;42.626;23.308;2023-02-24T23:53:39;91580.88;;;5.27;100.00
38558;BME280;24333;42.626;23.308;2023-02-24T23:56:15;91619.13;;;5.49;100.00
38558;BME280;24333;42.626;23.308;2023-02-24T23:58:42;91600.41;;;5.40;100.00
